createdAt,value
2018-09-20T07:23:56.299Z,6.40
2018-09-20T07:24:57.011Z,8.70
2018-09-20T07:25:57.751Z,8.80
2018-09-20T07:26:58.386Z,9.50
2018-09-20T07:27:59.051Z,9.00
2018-09-20T07:29:20.252Z,8.40
2018-09-20T07:31:27.777Z,8.40
2018-09-20T07:32:29.473Z,9.10
2018-09-20T07:33:30.239Z,8.90
2018-09-20T07:34:47.300Z,8.20
2018-09-20T07:37:35.654Z,8.40
2018-09-20T07:38:36.948Z,7.90
2018-09-20T07:39:37.730Z,8.40
2018-09-20T07:40:38.432Z,8.80
2018-09-20T07:43:26.392Z,8.50
2018-09-20T07:46:14.004Z,8.00
2018-09-20T07:47:14.720Z,8.50
2018-09-20T07:48:15.504Z,8.10
2018-09-20T07:49:16.331Z,8.30
2018-09-20T07:50:18.232Z,8.30
2018-09-20T07:51:19.020Z,8.20
2018-09-20T07:52:48.304Z,7.80
2018-09-20T07:53:49.213Z,7.80
2018-09-20T07:54:50.114Z,8.20
2018-09-20T07:56:18.313Z,8.20
2018-09-20T07:57:19.118Z,7.90
2018-09-20T07:58:19.887Z,8.40
2018-09-20T07:59:21.264Z,8.30
2018-09-20T08:02:10.660Z,7.90
2018-09-20T08:03:11.317Z,8.50
2018-09-20T08:04:11.980Z,8.60
2018-09-20T08:05:12.659Z,8.30
2018-09-20T08:06:19.954Z,8.20
2018-09-20T08:07:20.642Z,8.50
2018-09-20T08:08:47.929Z,8.60
2018-09-20T08:11:48.137Z,8.00
2018-09-20T08:13:17.307Z,8.50
2018-09-20T08:14:47.794Z,7.80
2018-09-20T08:15:48.474Z,7.80
2018-09-20T08:16:49.172Z,7.90
2018-09-20T08:17:49.833Z,7.60
2018-09-20T08:18:50.541Z,8.30
2018-09-20T08:19:51.227Z,8.20
2018-09-20T08:20:51.889Z,7.70
2018-09-20T08:22:17.353Z,7.20
2018-09-20T08:23:18.053Z,7.50
2018-09-20T08:24:18.716Z,7.10
2018-09-20T08:25:19.376Z,7.10
2018-09-20T08:26:47.221Z,7.30
2018-09-20T08:27:47.941Z,7.20
2018-09-20T08:29:18.054Z,7.20
2018-09-20T08:30:20.257Z,7.20
2018-09-20T08:31:47.839Z,6.80
2018-09-20T08:32:48.609Z,6.80
2018-09-20T08:34:17.808Z,6.70
2018-09-20T08:35:18.473Z,6.10
2018-09-20T08:36:19.154Z,5.90
2018-09-20T08:37:19.968Z,6.10
2018-09-20T08:38:20.615Z,6.60
2018-09-20T08:39:21.341Z,6.30
2018-09-20T08:40:22.081Z,6.20
2018-09-20T08:41:22.750Z,6.20
2018-09-20T08:42:23.505Z,6.20
2018-09-20T08:44:24.485Z,6.10
2018-09-20T08:47:12.008Z,6.00
2018-09-20T08:48:12.690Z,6.30
2018-09-20T08:49:13.384Z,6.20
2018-09-20T08:50:23.223Z,6.30
2018-09-20T08:51:58.650Z,6.20
2018-09-20T08:52:59.540Z,6.20
2018-09-20T08:54:01.193Z,6.40
2018-09-20T08:55:19.305Z,6.30
2018-09-20T08:56:47.648Z,6.50
2018-09-20T08:57:48.532Z,6.80
2018-09-20T08:59:53.683Z,6.10
2018-09-20T09:00:54.397Z,6.20
2018-09-20T09:02:17.541Z,5.60
2018-09-20T09:05:05.314Z,6.40
2018-09-20T09:06:06.019Z,6.40
2018-09-20T09:07:06.739Z,6.50
2018-09-20T09:08:07.521Z,6.60
2018-09-20T09:09:14.917Z,6.10
2018-09-20T09:10:15.982Z,5.90
2018-09-20T09:11:16.650Z,6.20
2018-09-20T09:12:19.491Z,6.20
2018-09-20T09:13:29.300Z,6.30
2018-09-20T09:14:47.683Z,6.70
2018-09-20T09:15:48.443Z,6.00
2018-09-20T09:16:49.188Z,6.10
2018-09-20T09:17:49.860Z,5.50
2018-09-20T09:18:50.596Z,5.80
2018-09-20T09:19:51.280Z,5.30
2018-09-20T09:20:52.044Z,5.20
2018-09-20T09:21:54.997Z,5.30
2018-09-20T09:22:55.852Z,5.20
2018-09-20T09:23:58.549Z,5.30
2018-09-20T09:24:59.722Z,5.10
2018-09-20T09:26:02.235Z,5.30
2018-09-20T09:27:02.994Z,5.00
2018-09-20T09:28:03.637Z,5.20
2018-09-20T09:29:04.750Z,5.20
2018-09-20T09:30:05.392Z,5.40
2018-09-20T09:31:06.045Z,5.50
2018-09-20T09:32:18.228Z,5.10
2018-09-20T09:33:18.959Z,5.60
2018-09-20T09:34:21.449Z,5.60
2018-09-20T09:35:23.665Z,5.60
2018-09-20T09:36:24.683Z,5.20
2018-09-20T09:37:25.679Z,5.80
2018-09-20T09:38:28.642Z,5.50
2018-09-20T09:39:34.826Z,5.60
2018-09-20T09:40:35.654Z,5.50
2018-09-20T09:41:48.256Z,5.20
2018-09-20T09:42:48.942Z,5.50
2018-09-20T09:43:49.644Z,5.30
2018-09-20T09:44:50.656Z,5.50
2018-09-20T09:45:59.961Z,5.50
2018-09-20T09:47:00.730Z,5.40
2018-09-20T09:48:01.417Z,5.10
2018-09-20T09:49:02.172Z,5.30
2018-09-20T09:50:02.892Z,5.40
2018-09-20T09:51:03.617Z,5.20
2018-09-20T09:54:09.310Z,5.60
2018-09-20T09:54:16.101Z,5.40
2018-09-20T09:55:17.287Z,5.50
2018-09-20T09:56:22.497Z,5.00
2018-09-20T09:57:24.105Z,5.10
2018-09-20T09:58:24.829Z,5.20
2018-09-20T09:59:55.459Z,5.30
2018-09-20T10:01:16.719Z,5.30
2018-09-20T10:02:17.534Z,5.10
2018-09-20T10:03:18.402Z,5.30
2018-09-20T10:04:46.656Z,5.10
2018-09-20T10:05:50.335Z,5.10
2018-09-20T10:06:51.083Z,5.10
2018-09-20T10:08:11.790Z,5.00
2018-09-20T10:09:13.903Z,5.20
2018-09-20T10:10:14.580Z,5.20
2018-09-20T10:11:51.763Z,5.10
2018-09-20T10:13:00.086Z,5.10
2018-09-20T10:14:00.817Z,4.80
2018-09-20T10:15:01.524Z,4.90
2018-09-20T10:16:03.928Z,5.30
2018-09-20T10:17:04.661Z,5.30
2018-09-20T10:18:10.323Z,5.20
2018-09-20T10:19:11.190Z,5.20
2018-09-20T10:20:19.609Z,5.00
2018-09-20T10:21:28.199Z,5.20
2018-09-20T10:22:43.582Z,5.20
2018-09-20T10:23:48.247Z,5.10
2018-09-20T10:24:48.932Z,5.10
2018-09-20T10:25:49.621Z,5.10
2018-09-20T10:26:51.813Z,5.10
2018-09-20T10:27:52.495Z,5.10
2018-09-20T10:28:53.210Z,5.30
2018-09-20T10:29:53.864Z,5.10
2018-09-20T10:30:54.530Z,4.80
2018-09-20T10:31:55.240Z,4.70
2018-09-20T10:32:57.333Z,5.10
2018-09-20T10:33:58.131Z,4.80
2018-09-20T10:34:58.848Z,4.80
2018-09-20T10:35:59.506Z,4.70
2018-09-20T10:37:00.376Z,4.80
2018-09-20T10:38:04.827Z,4.80
2018-09-20T10:39:11.492Z,4.80
2018-09-20T10:40:12.273Z,4.80
2018-09-20T10:41:13.064Z,4.60
2018-09-20T10:42:13.864Z,4.90
2018-09-20T10:43:14.655Z,5.00
2018-09-20T10:44:16.068Z,4.70
2018-09-20T10:45:18.203Z,4.80
2018-09-20T10:46:18.965Z,4.60
2018-09-20T10:47:19.954Z,4.80
2018-09-20T10:48:20.600Z,4.90
2018-09-20T10:49:21.406Z,4.60
2018-09-20T10:50:22.203Z,5.00
2018-09-20T10:51:22.974Z,4.90
2018-09-20T10:52:23.863Z,5.10
2018-09-20T10:53:24.944Z,4.80
2018-09-20T10:54:33.800Z,4.90
2018-09-20T10:55:35.048Z,4.90
2018-09-20T10:56:36.167Z,5.00
2018-09-20T10:57:50.136Z,4.80
2018-09-20T10:58:50.862Z,4.80
2018-09-20T10:59:51.543Z,4.80
2018-09-20T11:01:19.744Z,5.20
2018-09-20T11:02:20.481Z,4.90
2018-09-20T11:03:21.238Z,4.80
2018-09-20T11:04:59.912Z,5.20
2018-09-20T11:06:23.856Z,4.80
2018-09-20T11:07:24.598Z,4.80
2018-09-20T11:08:25.264Z,4.70
2018-09-20T11:09:26.546Z,4.90
2018-09-20T11:10:27.227Z,4.70
2018-09-20T11:11:27.952Z,5.10
2018-09-20T11:12:28.608Z,5.00
2018-09-20T11:13:29.273Z,4.90
2018-09-20T11:14:30.001Z,5.20
2018-09-20T11:15:30.683Z,5.10
2018-09-20T11:16:31.343Z,5.40
2018-09-20T11:17:32.036Z,5.20
2018-09-20T11:18:32.677Z,5.40
2018-09-20T11:19:33.801Z,5.40
2018-09-20T11:20:34.570Z,5.30
2018-09-20T11:21:35.238Z,5.80
2018-09-20T11:22:38.967Z,5.50
2018-09-20T11:23:39.681Z,5.50
2018-09-20T11:25:25.692Z,5.00
2018-09-20T11:26:47.179Z,4.90
2018-09-20T11:27:47.907Z,5.20
2018-09-20T11:29:17.448Z,5.40
2018-09-20T11:30:18.175Z,5.40
2018-09-20T11:31:43.374Z,5.20
2018-09-20T11:32:44.649Z,5.20
2018-09-20T11:33:53.726Z,5.20
2018-09-20T11:34:55.050Z,5.50
2018-09-20T11:35:55.730Z,5.40
2018-09-20T11:36:56.508Z,5.10
2018-09-20T11:37:57.211Z,5.30
2018-09-20T11:39:05.482Z,5.10
2018-09-20T11:40:06.287Z,5.20
2018-09-20T11:41:35.560Z,4.80
2018-09-20T11:43:28.891Z,5.20
2018-09-20T11:44:47.426Z,5.20
2018-09-20T11:45:48.131Z,5.20
2018-09-20T11:46:48.857Z,5.20
2018-09-20T11:47:49.544Z,5.60
2018-09-20T11:48:50.240Z,4.80
2018-09-20T11:49:50.932Z,5.40
2018-09-20T11:52:00.243Z,5.40
2018-09-20T11:53:00.970Z,5.40
2018-09-20T11:54:01.661Z,5.50
2018-09-20T11:55:17.176Z,5.10
2018-09-20T11:56:17.905Z,5.20
2018-09-20T11:57:20.037Z,5.30
2018-09-20T11:58:20.779Z,5.20
2018-09-20T11:59:48.934Z,5.30
2018-09-20T12:00:49.639Z,5.60
2018-09-20T12:01:50.352Z,5.20
2018-09-20T12:03:18.807Z,5.40
2018-09-20T12:04:19.576Z,5.60
2018-09-20T12:05:20.293Z,5.30
2018-09-20T12:06:22.157Z,5.60
2018-09-20T12:07:22.866Z,5.10
2018-09-20T12:08:23.695Z,5.20
2018-09-20T12:09:24.428Z,5.20
2018-09-20T12:12:12.202Z,5.20
2018-09-20T12:13:13.051Z,5.10
2018-09-20T12:14:17.666Z,5.10
2018-09-20T12:16:15.755Z,5.10
2018-09-20T12:17:48.347Z,5.10
2018-09-20T12:18:49.064Z,5.20
2018-09-20T12:19:49.828Z,5.20
2018-09-20T12:20:50.517Z,5.20
2018-09-20T12:21:51.342Z,4.80
2018-09-20T12:22:54.330Z,5.40
2018-09-20T12:23:54.991Z,5.00
2018-09-20T12:24:55.652Z,5.10
2018-09-20T12:25:56.341Z,5.10
2018-09-20T12:26:57.068Z,5.30
2018-09-20T12:27:57.945Z,5.20
2018-09-20T12:28:58.706Z,4.90
2018-09-20T12:29:59.423Z,5.00
2018-09-20T12:31:00.063Z,5.10
2018-09-20T12:32:00.769Z,4.70
2018-09-20T12:33:01.509Z,5.00
2018-09-20T12:34:20.614Z,4.60
2018-09-20T12:35:25.243Z,5.20
2018-09-20T12:36:25.969Z,4.80
2018-09-20T12:37:26.626Z,4.70
2018-09-20T12:38:27.273Z,5.10
2018-09-20T12:39:29.578Z,4.70
2018-09-20T12:40:31.528Z,4.90
2018-09-20T12:41:43.129Z,5.30
2018-09-20T12:42:43.808Z,5.30
2018-09-20T12:43:44.613Z,5.00
2018-09-20T12:44:45.336Z,4.90
2018-09-20T12:45:47.206Z,5.00
2018-09-20T12:46:47.923Z,5.20
2018-09-20T12:47:49.076Z,5.00
2018-09-20T12:48:49.850Z,5.10
2018-09-20T12:49:50.555Z,4.80
2018-09-20T12:50:51.263Z,5.10
2018-09-20T12:51:51.941Z,4.90
2018-09-20T12:52:52.583Z,5.20
2018-09-20T12:53:53.323Z,4.80
2018-09-20T12:54:54.091Z,4.80
2018-09-20T12:55:54.763Z,4.90
2018-09-20T12:56:55.457Z,4.60
2018-09-20T12:57:56.125Z,4.80
2018-09-20T12:58:56.779Z,4.60
2018-09-20T12:59:57.415Z,5.00
2018-09-20T13:00:58.140Z,4.80
2018-09-20T13:01:58.793Z,4.90
2018-09-20T13:03:02.473Z,5.00
2018-09-20T13:04:04.731Z,4.80
2018-09-20T13:05:05.431Z,4.70
2018-09-20T13:06:06.119Z,4.80
2018-09-20T13:07:07.525Z,4.80
2018-09-20T13:08:08.355Z,4.90
2018-09-20T13:09:17.246Z,4.60
2018-09-20T13:10:20.588Z,4.70
2018-09-20T13:11:21.320Z,4.60
2018-09-20T13:12:23.620Z,4.90
2018-09-20T13:13:25.283Z,4.70
2018-09-20T13:14:25.976Z,4.80
2018-09-20T13:15:26.629Z,4.60
2018-09-20T13:16:27.305Z,4.60
2018-09-20T13:17:27.987Z,4.80
2018-09-20T13:18:28.666Z,4.50
2018-09-20T13:19:30.807Z,4.50
2018-09-20T13:20:31.551Z,4.70
2018-09-20T13:21:32.225Z,4.70
2018-09-20T13:22:32.914Z,4.60
2018-09-20T13:23:48.289Z,4.50
2018-09-20T13:24:49.607Z,4.60
2018-09-20T13:25:50.292Z,4.60
2018-09-20T13:26:50.995Z,4.50
2018-09-20T13:27:51.747Z,4.50
2018-09-20T13:28:52.758Z,4.30
2018-09-20T13:29:53.510Z,4.60
2018-09-20T13:30:54.188Z,4.40
2018-09-20T13:31:59.412Z,4.70
2018-09-20T13:33:02.001Z,4.50
2018-09-20T13:34:02.801Z,4.20
2018-09-20T13:35:03.487Z,4.40
2018-09-20T13:36:11.626Z,4.20
2018-09-20T13:37:12.505Z,4.40
2018-09-20T13:38:13.266Z,4.50
2018-09-20T13:39:14.043Z,4.50
2018-09-20T13:40:14.759Z,4.50
2018-09-20T13:41:15.448Z,4.20
2018-09-20T13:42:16.097Z,4.80
2018-09-20T13:43:16.927Z,4.70
2018-09-20T13:44:17.979Z,5.00
2018-09-20T13:45:22.529Z,4.80
2018-09-20T13:46:27.679Z,4.60
2018-09-20T13:47:28.455Z,4.90
2018-09-20T13:48:29.095Z,5.00
2018-09-20T13:49:30.195Z,4.70
2018-09-20T13:50:31.204Z,5.30
2018-09-20T13:51:31.880Z,4.60
2018-09-20T13:52:32.560Z,4.80
2018-09-20T13:53:34.936Z,5.00
2018-09-20T13:54:35.782Z,5.20
2018-09-20T13:55:36.481Z,4.80
2018-09-20T13:56:37.259Z,4.80
2018-09-20T13:57:38.588Z,5.10
2018-09-20T13:58:39.448Z,4.90
2018-09-20T13:59:40.799Z,4.90
2018-09-20T14:00:41.439Z,4.50
2018-09-20T14:01:42.104Z,5.10
2018-09-20T14:02:42.793Z,4.50
2018-09-20T14:03:43.503Z,4.80
2018-09-20T14:04:48.246Z,5.10
2018-09-20T14:05:48.971Z,5.10
2018-09-20T14:06:49.609Z,4.60
2018-09-20T14:07:50.285Z,5.00
2018-09-20T14:08:50.991Z,5.00
2018-09-20T14:09:51.833Z,4.70
2018-09-20T14:10:52.503Z,4.90
2018-09-20T14:11:53.210Z,4.90
2018-09-20T14:12:53.904Z,4.80
2018-09-20T14:13:54.569Z,4.80
2018-09-20T14:14:56.226Z,4.50
2018-09-20T14:15:56.858Z,4.60
2018-09-20T14:16:58.163Z,5.00
2018-09-20T14:17:58.789Z,4.70
2018-09-20T14:18:59.516Z,4.80
2018-09-20T14:20:00.190Z,4.80
2018-09-20T14:21:00.806Z,4.70
2018-09-20T14:22:01.468Z,4.70
2018-09-20T14:23:02.096Z,4.40
2018-09-20T14:24:02.878Z,4.50
2018-09-20T14:25:03.549Z,4.40
2018-09-20T14:26:51.049Z,4.50
2018-09-20T14:27:51.785Z,4.50
2018-09-20T14:28:52.450Z,4.50
2018-09-20T14:29:53.489Z,4.60
2018-09-20T14:30:54.204Z,4.40
2018-09-20T14:31:54.936Z,4.50
2018-09-20T14:32:55.602Z,4.60
2018-09-20T14:34:01.044Z,4.50
2018-09-20T14:35:19.402Z,4.20
2018-09-20T14:36:20.148Z,4.50
2018-09-20T14:37:20.826Z,4.50
2018-09-20T14:38:21.521Z,4.50
2018-09-20T14:39:22.267Z,4.50
2018-09-20T14:40:23.464Z,4.20
2018-09-20T14:41:24.540Z,4.50
2018-09-20T14:42:25.364Z,4.10
2018-09-20T14:43:26.048Z,4.40
2018-09-20T14:44:28.251Z,4.20
2018-09-20T14:45:28.917Z,4.60
2018-09-20T14:46:29.656Z,4.10
2018-09-20T14:47:42.162Z,4.30
2018-09-20T14:48:42.937Z,4.40
2018-09-20T14:49:43.680Z,4.10
2018-09-20T14:50:44.335Z,4.00
2018-09-20T14:51:45.102Z,4.50
2018-09-20T14:52:45.891Z,4.30
2018-09-20T14:53:46.581Z,4.20
2018-09-20T14:54:47.407Z,4.10
2018-09-20T14:55:48.088Z,4.30
2018-09-20T14:56:48.852Z,4.30
2018-09-20T14:57:49.560Z,4.40
2018-09-20T14:58:50.331Z,4.40
2018-09-20T14:59:51.084Z,4.40
2018-09-20T15:00:51.830Z,4.20
2018-09-20T15:01:52.571Z,4.60
2018-09-20T15:02:53.438Z,4.10
2018-09-20T15:03:54.312Z,4.30
2018-09-20T15:04:56.752Z,4.40
2018-09-20T15:05:57.455Z,4.30
2018-09-20T15:06:58.135Z,4.50
2018-09-20T15:07:58.860Z,4.30
2018-09-20T15:08:59.549Z,4.50
2018-09-20T15:10:00.158Z,4.30
2018-09-20T15:11:00.916Z,4.30
2018-09-20T15:12:02.301Z,4.10
2018-09-20T15:13:03.046Z,4.30
2018-09-20T15:14:04.633Z,4.00
2018-09-20T15:15:05.379Z,3.90
2018-09-20T15:16:06.153Z,3.90
2018-09-20T15:17:06.854Z,4.50
2018-09-20T15:18:07.531Z,4.40
2018-09-20T15:19:08.187Z,3.90
2018-09-20T15:20:08.931Z,4.10
2018-09-20T15:21:09.732Z,4.20
2018-09-20T15:22:11.168Z,3.90
2018-09-20T15:23:11.856Z,4.20
2018-09-20T15:24:14.687Z,4.10
2018-09-20T15:25:15.409Z,4.10
2018-09-20T15:26:16.037Z,4.10
2018-09-20T15:27:16.782Z,4.10
2018-09-20T15:28:17.586Z,4.70
2018-09-20T15:29:18.365Z,4.90
2018-09-20T15:30:19.082Z,4.20
2018-09-20T15:31:19.755Z,4.00
2018-09-20T15:32:20.457Z,4.50
2018-09-20T15:33:21.125Z,4.40
2018-09-20T15:34:21.807Z,3.90
2018-09-20T15:35:22.943Z,4.60
2018-09-20T15:36:23.776Z,4.80
2018-09-20T15:37:25.217Z,6.10
2018-09-20T15:38:25.931Z,3.90
2018-09-20T15:39:26.619Z,4.00
2018-09-20T15:40:27.335Z,4.00
2018-09-20T15:41:28.280Z,4.30
2018-09-20T15:42:28.984Z,4.50
2018-09-20T15:43:29.616Z,4.20
2018-09-20T15:44:30.387Z,4.30
2018-09-20T15:45:31.079Z,4.40
2018-09-20T15:46:32.152Z,4.20
2018-09-20T15:47:34.079Z,4.20
2018-09-20T15:48:34.775Z,5.20
2018-09-20T15:49:35.624Z,4.00
2018-09-20T15:50:37.165Z,4.20
2018-09-20T15:51:38.657Z,4.10
2018-09-20T15:52:39.330Z,8.20
2018-09-20T15:53:40.048Z,5.30
2018-09-20T15:54:40.758Z,7.40
2018-09-20T15:55:41.481Z,4.80
2018-09-20T15:56:48.132Z,3.90
2018-09-20T15:57:48.975Z,3.80
2018-09-20T15:58:49.771Z,4.00
2018-09-20T15:59:52.249Z,3.80
2018-09-20T16:00:55.184Z,3.80
2018-09-20T16:01:56.628Z,3.80
2018-09-20T16:02:57.404Z,3.90
2018-09-20T16:03:58.266Z,4.10
2018-09-20T16:04:59.050Z,4.00
2018-09-20T16:05:59.748Z,3.90
2018-09-20T16:07:00.416Z,3.90
2018-09-20T16:08:01.075Z,3.80
2018-09-20T16:09:01.742Z,3.90
2018-09-20T16:10:02.402Z,3.80
2018-09-20T16:11:03.065Z,3.80
2018-09-20T16:12:04.015Z,4.00
2018-09-20T16:13:04.737Z,3.80
2018-09-20T16:14:05.567Z,3.90
2018-09-20T16:15:06.264Z,3.80
2018-09-20T16:16:06.897Z,3.90
2018-09-20T16:17:07.581Z,4.00
2018-09-20T16:18:08.257Z,4.00
2018-09-20T16:19:08.895Z,4.00
2018-09-20T16:20:09.532Z,3.60
2018-09-20T16:21:10.204Z,4.20
2018-09-20T16:22:10.872Z,3.80
2018-09-20T16:23:11.728Z,3.90
2018-09-20T16:24:12.451Z,4.00
2018-09-20T16:25:13.128Z,4.00
2018-09-20T16:26:13.905Z,4.10
2018-09-20T16:27:15.255Z,4.40
2018-09-20T16:28:18.436Z,4.30
2018-09-20T16:29:19.363Z,4.50
2018-09-20T16:30:20.093Z,4.30
2018-09-20T16:31:20.792Z,4.40
2018-09-20T16:32:21.555Z,4.30
2018-09-20T16:33:22.207Z,4.20
2018-09-20T16:34:24.862Z,4.40
2018-09-20T16:35:50.840Z,4.30
2018-09-20T16:36:51.549Z,4.20
2018-09-20T16:37:52.204Z,4.20
2018-09-20T16:38:52.962Z,4.40
2018-09-20T16:39:53.792Z,4.40
2018-09-20T16:40:54.454Z,4.40
2018-09-20T16:41:55.283Z,4.40
2018-09-20T16:42:56.368Z,4.70
2018-09-20T16:43:58.348Z,4.40
2018-09-20T16:44:59.196Z,4.30
2018-09-20T16:46:00.107Z,4.60
2018-09-20T16:47:03.807Z,4.30
2018-09-20T16:48:04.545Z,3.90
2018-09-20T16:49:05.206Z,4.30
2018-09-20T16:50:07.778Z,4.40
2018-09-20T16:51:08.529Z,4.40
2018-09-20T16:52:09.199Z,4.30
2018-09-20T16:53:09.982Z,4.20
2018-09-20T16:54:10.661Z,4.10
2018-09-20T16:55:11.363Z,4.10
2018-09-20T16:56:12.004Z,4.40
2018-09-20T16:57:18.881Z,4.20
2018-09-20T16:58:19.816Z,4.10
2018-09-20T16:59:20.670Z,4.10
2018-09-20T17:00:21.575Z,4.40
2018-09-20T17:01:22.339Z,4.00
2018-09-20T17:02:23.060Z,4.10
2018-09-20T17:03:33.877Z,4.00
2018-09-20T17:04:34.592Z,3.90
2018-09-20T17:05:35.281Z,4.30
2018-09-20T17:06:35.939Z,4.20
2018-09-20T17:07:45.893Z,4.20
2018-09-20T17:08:46.718Z,4.10
2018-09-20T17:09:47.521Z,4.00
2018-09-20T17:10:48.455Z,3.80
2018-09-20T17:11:49.133Z,4.10
2018-09-20T17:12:49.782Z,3.70
2018-09-20T17:13:50.545Z,4.50
2018-09-20T17:14:51.303Z,4.30
2018-09-20T17:15:56.169Z,4.40
2018-09-20T17:16:56.943Z,4.40
2018-09-20T17:17:58.240Z,4.10
2018-09-20T17:18:59.315Z,4.20
2018-09-20T17:20:00.145Z,4.20
2018-09-20T17:21:03.373Z,4.40
2018-09-20T17:22:04.255Z,4.40
2018-09-20T17:23:07.592Z,4.50
2018-09-20T17:24:08.501Z,4.10
2018-09-20T17:25:11.299Z,4.10
2018-09-20T17:26:12.352Z,4.30
2018-09-20T17:27:13.101Z,4.10
2018-09-20T17:28:16.440Z,4.30
2018-09-20T17:29:17.424Z,4.00
2018-09-20T17:30:20.157Z,4.30
2018-09-20T17:31:23.763Z,4.50
2018-09-20T17:32:24.742Z,4.30
2018-09-20T17:33:25.673Z,4.40
2018-09-20T17:34:27.240Z,4.50
2018-09-20T17:35:27.981Z,4.40
2018-09-20T17:36:29.978Z,4.40
2018-09-20T17:37:30.771Z,4.50
2018-09-20T17:38:33.052Z,4.40
2018-09-20T17:39:33.781Z,4.70
2018-09-20T17:40:35.058Z,4.40
2018-09-20T17:41:35.835Z,4.60
2018-09-20T17:42:37.151Z,4.50
2018-09-20T17:43:37.805Z,4.50
2018-09-20T17:44:38.493Z,4.10
2018-09-20T17:45:39.241Z,4.50
2018-09-20T17:46:40.747Z,4.20
2018-09-20T17:47:41.640Z,4.30
2018-09-20T17:48:42.295Z,4.10
2018-09-20T17:49:42.993Z,4.40
2018-09-20T17:50:43.650Z,4.50
2018-09-20T17:51:44.475Z,4.50
2018-09-20T17:52:45.944Z,4.60
2018-09-20T17:53:46.742Z,4.20
2018-09-20T17:54:47.486Z,4.40
2018-09-20T17:55:49.128Z,4.40
2018-09-20T17:56:49.954Z,4.30
2018-09-20T17:57:50.631Z,4.50
2018-09-20T17:58:51.284Z,4.60
2018-09-20T17:59:51.984Z,4.40
2018-09-20T18:00:52.775Z,4.40
2018-09-20T18:01:54.709Z,4.30
2018-09-20T18:02:55.495Z,4.40
2018-09-20T18:03:56.253Z,4.30
2018-09-20T18:04:56.909Z,4.50
2018-09-20T18:05:57.631Z,4.30
2018-09-20T18:06:58.332Z,4.40
2018-09-20T18:07:59.038Z,4.40
2018-09-20T18:08:59.696Z,4.60
2018-09-20T18:10:00.354Z,4.40
2018-09-20T18:11:01.546Z,4.50
2018-09-20T18:12:03.275Z,4.70
2018-09-20T18:13:04.531Z,4.30
2018-09-20T18:14:05.674Z,4.70
2018-09-20T18:15:06.503Z,4.10
2018-09-20T18:16:07.171Z,8.50
2018-09-20T18:17:07.861Z,4.30
2018-09-20T18:18:08.910Z,4.60
2018-09-20T18:19:09.645Z,4.90
2018-09-20T18:20:10.315Z,5.10
2018-09-20T18:21:10.976Z,4.60
2018-09-20T18:22:11.884Z,4.80
2018-09-20T18:23:12.623Z,4.50
2018-09-20T18:24:13.473Z,4.80
2018-09-20T18:25:14.330Z,4.80
2018-09-20T18:26:15.029Z,4.60
2018-09-20T18:27:15.691Z,4.50
2018-09-20T18:28:16.427Z,4.70
2018-09-20T18:29:17.338Z,4.30
2018-09-20T18:30:18.025Z,4.60
2018-09-20T18:31:19.917Z,4.40
2018-09-20T18:32:20.755Z,4.50
2018-09-20T18:33:21.631Z,4.70
2018-09-20T18:34:22.737Z,4.80
2018-09-20T18:35:23.713Z,5.10
2018-09-20T18:36:24.806Z,4.70
2018-09-20T18:37:25.519Z,4.40
2018-09-20T18:38:26.181Z,4.70
2018-09-20T18:39:26.906Z,4.90
2018-09-20T18:40:27.633Z,5.00
2018-09-20T18:41:28.333Z,4.90
2018-09-20T18:42:29.080Z,5.20
2018-09-20T18:43:30.053Z,4.50
2018-09-20T18:44:30.809Z,4.80
2018-09-20T18:45:31.474Z,4.50
2018-09-20T18:46:32.199Z,4.80
2018-09-20T18:47:33.557Z,5.00
2018-09-20T18:48:34.264Z,4.90
2018-09-20T18:49:35.053Z,5.10
2018-09-20T18:50:35.752Z,5.00
2018-09-20T18:51:36.442Z,4.80
2018-09-20T18:52:37.095Z,4.80
2018-09-20T18:53:37.840Z,4.90
2018-09-20T18:54:38.559Z,4.50
2018-09-20T18:55:39.220Z,4.70
2018-09-20T18:56:39.880Z,4.80
2018-09-20T18:57:41.866Z,4.90
2018-09-20T18:58:42.619Z,4.70
2018-09-20T18:59:43.257Z,4.50
2018-09-20T19:00:43.944Z,4.70
2018-09-20T19:01:44.821Z,4.70
2018-09-20T19:02:45.487Z,4.60
2018-09-20T19:03:46.486Z,4.70
2018-09-20T19:04:47.458Z,4.50
2018-09-20T19:05:48.326Z,4.80
